Terminal Aerodrome Forecast
Issued by NWS

Home | Current Version | Previous Version | Graphics & Text | Print | Product List | Glossary On
Versions: 1 2 3 4 5 6 7 8 9 10 11 12 13 14 15 16 17 18 19 20 21 22
000
FTUS43 KICT 282332
TAFHUT
TAF
KHUT 282332Z 2900/2924 06017G25KT P6SM VCTS OVC018CB
      TEMPO 2900/2904 3SM TSRA BKN009CB
     FM290400 03018G27KT 4SM -TSRA BKN012CB
      TEMPO 2904/2908 2SM TSRA OVC006CB
     FM290800 06019G27KT 5SM -TSRA OVC006CB
     FM291800 04014G21KT P6SM VCSH OVC008=

USA.gov is the U.S. government's official web portal to all federal, state and local government web resources and services.